createdAt,value
2022-11-25T00:01:15.798Z,27.70
2022-11-25T00:03:43.795Z,21.33
2022-11-25T00:06:16.343Z,19.20
2022-11-25T00:08:44.892Z,21.67
2022-11-25T00:11:12.737Z,20.53
2022-11-25T00:13:40.952Z,24.53
2022-11-25T00:16:11.035Z,22.03
2022-11-25T00:18:38.332Z,19.57
2022-11-25T00:21:10.580Z,21.93
2022-11-25T00:23:38.188Z,21.30
2022-11-25T00:26:15.844Z,17.63
2022-11-25T00:28:47.249Z,22.70
2022-11-25T00:31:22.557Z,22.40
2022-11-25T00:33:49.947Z,17.07
2022-11-25T00:36:17.044Z,23.13
2022-11-25T00:38:45.755Z,23.60
2022-11-25T00:41:31.420Z,19.17
2022-11-25T00:44:17.630Z,21.33
2022-11-25T00:46:44.497Z,18.73
2022-11-25T00:49:11.395Z,23.47
2022-11-25T00:51:38.304Z,22.57
2022-11-25T00:54:05.386Z,18.90
2022-11-25T00:56:32.714Z,18.80
2022-11-25T00:58:59.667Z,24.00
2022-11-25T01:01:27.036Z,18.67
2022-11-25T01:03:54.185Z,18.07
2022-11-25T01:06:22.170Z,15.90
2022-11-25T01:08:49.651Z,19.73
2022-11-25T01:11:19.875Z,18.83
2022-11-25T01:13:46.903Z,17.10
2022-11-25T01:16:19.302Z,15.47
2022-11-25T01:18:46.396Z,18.70
2022-11-25T01:21:14.713Z,15.27
2022-11-25T01:23:42.974Z,18.83
2022-11-25T01:26:21.832Z,17.70
2022-11-25T01:28:52.899Z,15.77
2022-11-25T01:31:21.838Z,13.87
2022-11-25T01:33:54.315Z,15.30
2022-11-25T01:36:21.217Z,20.33
2022-11-25T01:38:52.624Z,18.20
2022-11-25T01:41:20.218Z,19.63
2022-11-25T01:44:05.876Z,13.73
2022-11-25T01:46:55.050Z,17.30
2022-11-25T01:49:33.515Z,19.60
2022-11-25T01:52:06.894Z,11.47
2022-11-25T01:54:47.054Z,15.93
2022-11-25T01:57:26.434Z,13.87
2022-11-25T01:59:57.952Z,16.07
2022-11-25T02:02:25.029Z,16.47
2022-11-25T02:04:52.435Z,14.53
2022-11-25T02:07:28.656Z,13.83
2022-11-25T02:09:56.153Z,12.67
2022-11-25T02:12:24.607Z,16.10
2022-11-25T02:14:53.667Z,14.10
2022-11-25T02:17:20.718Z,19.17
2022-11-25T02:20:06.142Z,19.00
2022-11-25T02:22:54.859Z,12.53
2022-11-25T02:25:40.188Z,19.73
2022-11-25T02:28:14.479Z,15.23
2022-11-25T02:30:41.949Z,14.00
2022-11-25T02:33:09.181Z,14.40
2022-11-25T02:35:37.797Z,13.10
2022-11-25T02:38:32.398Z,13.83
2022-11-25T02:41:25.431Z,17.03
2022-11-25T02:43:52.308Z,17.60
2022-11-25T02:46:22.866Z,13.07
2022-11-25T02:49:08.459Z,16.20
2022-11-25T02:51:37.429Z,16.00
2022-11-25T02:54:04.967Z,13.70
2022-11-25T02:56:34.696Z,14.37
2022-11-25T02:59:02.684Z,10.90
2022-11-25T03:01:31.477Z,15.40
2022-11-25T03:03:58.882Z,16.40
2022-11-25T03:06:25.901Z,13.20
2022-11-25T03:08:52.726Z,13.47
2022-11-25T03:11:19.647Z,16.50
2022-11-25T03:13:46.506Z,21.17
2022-11-25T03:16:13.365Z,11.03
2022-11-25T03:18:40.369Z,12.33
2022-11-25T03:21:07.512Z,12.37
2022-11-25T03:23:34.402Z,20.83
2022-11-25T03:26:05.654Z,21.50
2022-11-25T03:28:32.587Z,26.07
2022-11-25T03:30:59.429Z,14.07
2022-11-25T03:33:26.353Z,13.27
2022-11-25T03:35:53.211Z,13.60
2022-11-25T03:38:20.042Z,12.40
2022-11-25T03:40:48.009Z,18.03
2022-11-25T03:43:14.864Z,13.00
2022-11-25T03:45:41.845Z,12.07
2022-11-25T03:48:09.019Z,11.97
2022-11-25T03:50:35.923Z,11.30
2022-11-25T03:53:02.763Z,11.47
2022-11-25T03:55:29.649Z,13.87
2022-11-25T03:57:56.511Z,18.17
2022-11-25T04:00:23.375Z,15.67
2022-11-25T04:02:50.336Z,13.07
2022-11-25T04:05:17.304Z,13.60
2022-11-25T04:07:44.237Z,14.20
2022-11-25T04:10:11.610Z,11.67
2022-11-25T04:12:47.772Z,18.20
2022-11-25T04:15:16.796Z,13.77
2022-11-25T04:17:43.827Z,17.20
2022-11-25T04:20:12.339Z,16.53
2022-11-25T04:22:39.269Z,14.80
2022-11-25T04:25:07.122Z,17.20
2022-11-25T04:27:34.442Z,16.33
2022-11-25T04:30:01.413Z,13.77
2022-11-25T04:32:28.533Z,13.23
2022-11-25T04:34:55.397Z,16.50
2022-11-25T04:37:22.327Z,11.40
2022-11-25T04:39:49.261Z,16.17
2022-11-25T04:42:34.878Z,12.30
2022-11-25T04:47:52.635Z,13.43
2022-11-25T04:50:21.817Z,12.20
2022-11-25T04:52:48.836Z,12.80
2022-11-25T04:55:15.741Z,13.20
2022-11-25T04:57:42.568Z,18.20
2022-11-25T05:00:11.162Z,12.90
2022-11-25T05:02:38.157Z,12.17
2022-11-25T05:05:06.236Z,17.50
2022-11-25T05:07:33.391Z,16.33
2022-11-25T05:10:00.287Z,13.80
2022-11-25T05:12:29.096Z,14.83
2022-11-25T05:14:56.631Z,15.13
2022-11-25T05:17:25.905Z,12.30
2022-11-25T05:19:53.226Z,10.33
2022-11-25T05:22:23.319Z,18.30
2022-11-25T05:24:50.258Z,16.70
2022-11-25T05:27:18.163Z,21.30
2022-11-25T05:29:45.262Z,16.73
2022-11-25T05:32:12.664Z,14.50
2022-11-25T05:34:40.098Z,14.33
2022-11-25T05:37:07.734Z,16.43
2022-11-25T05:39:34.832Z,14.43
2022-11-25T05:42:01.830Z,14.43
2022-11-25T05:44:28.670Z,14.90
2022-11-25T05:46:55.577Z,11.20
2022-11-25T05:49:22.542Z,11.97
2022-11-25T05:51:49.497Z,16.27
2022-11-25T05:54:16.416Z,13.50
2022-11-25T05:56:43.353Z,16.07
2022-11-25T05:59:10.203Z,13.50
2022-11-25T06:01:37.020Z,14.97
2022-11-25T06:04:05.249Z,16.50
2022-11-25T06:06:32.767Z,15.70
2022-11-25T06:09:00.429Z,20.13
2022-11-25T06:11:27.538Z,15.60
2022-11-25T06:13:59.290Z,11.87
2022-11-25T06:16:26.457Z,12.90
2022-11-25T06:18:53.361Z,15.40
2022-11-25T06:21:20.426Z,14.30
2022-11-25T06:23:47.560Z,17.53
2022-11-25T06:26:15.996Z,15.70
2022-11-25T06:28:43.574Z,20.90
2022-11-25T06:31:15.638Z,16.80
2022-11-25T06:33:45.893Z,12.40
2022-11-25T06:36:21.728Z,15.57
2022-11-25T06:38:51.763Z,18.33
2022-11-25T06:41:19.139Z,23.90
2022-11-25T06:43:46.162Z,14.43
2022-11-25T06:46:24.446Z,18.20
2022-11-25T06:48:52.008Z,22.57
2022-11-25T06:51:19.233Z,47.80
2022-11-25T06:53:46.192Z,33.23
2022-11-25T06:56:19.623Z,29.00
2022-11-25T06:58:47.853Z,212.17
2022-11-25T07:01:17.471Z,36.60
2022-11-25T07:03:46.154Z,140.97
2022-11-25T07:06:14.484Z,218.23
2022-11-25T07:08:41.913Z,99.47
2022-11-25T07:11:20.662Z,70.07
2022-11-25T07:13:48.776Z,49.63
2022-11-25T07:16:16.143Z,103.80
2022-11-25T07:18:43.179Z,188.10
2022-11-25T07:21:15.491Z,138.77
2022-11-25T07:23:43.862Z,213.40
2022-11-25T07:26:16.734Z,113.70
2022-11-25T07:28:44.662Z,31.90
2022-11-25T07:31:27.653Z,108.17
2022-11-25T07:34:01.968Z,103.53
2022-11-25T07:36:30.251Z,48.30
2022-11-25T07:39:03.596Z,186.50
2022-11-25T07:41:30.612Z,121.50
2022-11-25T07:44:04.840Z,108.13
2022-11-25T07:46:34.160Z,102.33
2022-11-25T07:49:04.549Z,199.00
2022-11-25T07:51:39.902Z,153.97
2022-11-25T07:54:08.889Z,116.07
2022-11-25T07:56:37.366Z,131.90
2022-11-25T07:59:05.209Z,107.53
2022-11-25T08:01:32.280Z,82.83
2022-11-25T08:03:59.572Z,113.87
2022-11-25T08:06:28.314Z,51.70
2022-11-25T08:08:57.286Z,30.57
2022-11-25T08:11:27.755Z,31.00
2022-11-25T08:13:55.740Z,23.67
2022-11-25T08:16:31.326Z,22.57
2022-11-25T08:19:00.275Z,20.10
2022-11-25T08:21:28.048Z,22.23
2022-11-25T08:23:55.438Z,32.13
2022-11-25T08:26:30.185Z,33.73
2022-11-25T08:28:58.398Z,21.40
2022-11-25T08:31:30.493Z,23.33
2022-11-25T08:33:57.912Z,23.93
2022-11-25T08:36:26.274Z,20.00
2022-11-25T08:38:55.507Z,18.73
2022-11-25T08:41:32.051Z,15.33
2022-11-25T08:44:00.913Z,18.13
2022-11-25T08:46:33.773Z,19.03
2022-11-25T08:49:01.754Z,23.70
2022-11-25T08:51:31.583Z,14.80
2022-11-25T08:53:59.638Z,13.83
2022-11-25T08:56:26.714Z,19.33
2022-11-25T08:58:55.106Z,16.63
2022-11-25T09:01:23.403Z,20.53
2022-11-25T09:03:53.014Z,22.97
2022-11-25T09:06:20.472Z,24.70
2022-11-25T09:08:47.906Z,22.20
2022-11-25T09:11:15.435Z,29.77
2022-11-25T09:13:42.361Z,23.37
2022-11-25T09:16:09.737Z,26.47
2022-11-25T09:18:37.426Z,23.30
2022-11-25T09:21:13.138Z,17.87
2022-11-25T09:23:40.558Z,19.20
2022-11-25T09:26:08.254Z,19.30
2022-11-25T09:28:36.668Z,23.70
2022-11-25T09:31:08.544Z,17.80
2022-11-25T09:33:36.224Z,20.10
2022-11-25T09:36:03.914Z,16.77
2022-11-25T09:38:31.060Z,14.83
2022-11-25T09:41:49.374Z,20.93
2022-11-25T09:44:59.851Z,18.97
2022-11-25T09:47:58.202Z,20.40
2022-11-25T09:50:48.710Z,23.10
2022-11-25T09:53:24.677Z,17.17
2022-11-25T09:56:00.048Z,20.90
2022-11-25T09:58:39.044Z,15.00
2022-11-25T10:01:12.680Z,18.10
2022-11-25T10:03:46.456Z,16.47
2022-11-25T10:06:24.108Z,17.40
2022-11-25T10:09:02.440Z,18.63
2022-11-25T10:11:55.030Z,16.90
2022-11-25T10:14:34.107Z,19.63
2022-11-25T10:17:14.773Z,19.00
2022-11-25T10:19:47.819Z,29.17
2022-11-25T10:22:31.452Z,19.30
2022-11-25T10:25:06.538Z,20.20
2022-11-25T10:27:51.132Z,33.57
2022-11-25T10:30:22.068Z,28.40
2022-11-25T10:33:02.492Z,22.60
2022-11-25T10:35:38.628Z,21.40
2022-11-25T10:38:18.562Z,19.03
2022-11-25T10:40:49.831Z,19.80
2022-11-25T10:43:16.635Z,25.30
2022-11-25T10:45:57.631Z,20.80
2022-11-25T10:48:50.611Z,21.70
2022-11-25T10:51:37.592Z,17.53
2022-11-25T10:54:27.237Z,21.07
2022-11-25T10:57:19.025Z,27.17
2022-11-25T10:59:58.859Z,18.53
2022-11-25T11:02:38.522Z,23.30
2022-11-25T11:05:22.406Z,16.97
2022-11-25T11:08:16.630Z,19.67
2022-11-25T11:10:44.322Z,19.20
2022-11-25T11:13:33.197Z,17.03
2022-11-25T11:16:00.531Z,18.40
2022-11-25T11:18:40.871Z,17.10
2022-11-25T11:21:21.815Z,18.53
2022-11-25T11:23:52.219Z,19.10
2022-11-25T11:26:28.210Z,20.77
2022-11-25T11:29:16.003Z,16.23
2022-11-25T11:31:49.351Z,18.47
2022-11-25T11:34:35.481Z,16.17
2022-11-25T11:37:36.294Z,22.23
2022-11-25T11:40:28.753Z,20.80
2022-11-25T11:43:04.347Z,23.83
2022-11-25T11:45:31.203Z,22.57
2022-11-25T11:48:21.444Z,18.73
2022-11-25T11:50:58.081Z,23.10
2022-11-25T11:53:43.557Z,17.00
2022-11-25T11:56:39.054Z,15.93
2022-11-25T11:59:23.668Z,20.23
2022-11-25T12:02:18.256Z,22.50
2022-11-25T12:04:55.570Z,21.67
2022-11-25T12:07:41.152Z,19.77
2022-11-25T12:10:26.799Z,19.07
2022-11-25T12:13:06.195Z,20.47
2022-11-25T12:15:48.302Z,22.20
2022-11-25T12:18:20.927Z,22.67
2022-11-25T12:21:12.860Z,22.70
2022-11-25T12:24:05.077Z,26.33
2022-11-25T12:26:55.893Z,23.33
2022-11-25T12:29:34.846Z,63.37
2022-11-25T12:32:39.151Z,39.73
2022-11-25T12:35:12.063Z,21.63
2022-11-25T12:37:46.887Z,28.77
2022-11-25T12:40:20.402Z,34.13
2022-11-25T12:42:49.197Z,31.30
2022-11-25T12:45:24.620Z,38.67
2022-11-25T12:47:53.154Z,38.60
2022-11-25T12:51:09.206Z,42.40
2022-11-25T12:54:01.593Z,38.07
2022-11-25T12:56:43.213Z,39.13
2022-11-25T12:59:44.195Z,54.70
2022-11-25T13:02:38.296Z,47.43
2022-11-25T13:05:40.089Z,44.87
2022-11-25T13:08:39.668Z,32.80
2022-11-25T13:11:21.705Z,39.37
2022-11-25T13:13:58.440Z,78.77
2022-11-25T13:16:27.797Z,88.83
2022-11-25T13:18:55.882Z,37.57
2022-11-25T13:21:27.559Z,30.97
2022-11-25T13:23:58.906Z,31.27
2022-11-25T13:26:37.068Z,33.17
2022-11-25T13:29:26.784Z,32.90
2022-11-25T13:32:05.190Z,32.67
2022-11-25T13:34:34.643Z,34.97
2022-11-25T13:37:23.146Z,38.17
2022-11-25T13:39:49.950Z,32.80
2022-11-25T13:42:19.799Z,30.50
2022-11-25T13:44:58.067Z,29.97
2022-11-25T13:47:41.315Z,27.33
2022-11-25T13:50:23.274Z,48.10
2022-11-25T13:53:04.935Z,28.77
2022-11-25T13:55:38.618Z,30.70
2022-11-25T13:58:17.385Z,29.70
2022-11-25T14:00:44.324Z,30.17
2022-11-25T14:03:31.403Z,27.03
2022-11-25T14:06:43.121Z,29.07
2022-11-25T14:09:24.519Z,24.63
2022-11-25T14:12:16.398Z,25.67
2022-11-25T14:14:52.219Z,23.67
2022-11-25T14:17:33.842Z,30.83
2022-11-25T14:20:13.613Z,29.60
2022-11-25T14:22:43.370Z,34.47
2022-11-25T14:25:34.062Z,27.13
2022-11-25T14:28:18.838Z,25.00
2022-11-25T14:30:53.702Z,32.07
2022-11-25T14:33:48.723Z,30.37
2022-11-25T14:36:21.170Z,30.93
2022-11-25T14:38:54.393Z,51.30
2022-11-25T14:41:38.404Z,39.13
2022-11-25T14:44:11.700Z,46.13
2022-11-25T14:46:55.625Z,48.10
2022-11-25T14:49:46.674Z,36.97
2022-11-25T14:52:11.181Z,35.60
2022-11-25T14:54:43.394Z,32.40
2022-11-25T14:57:11.028Z,30.57
2022-11-25T14:59:43.582Z,43.37
2022-11-25T15:02:26.058Z,34.40
2022-11-25T15:04:53.264Z,30.13
2022-11-25T15:07:27.850Z,28.93
2022-11-25T15:09:57.748Z,32.13
2022-11-25T15:12:31.000Z,39.00
2022-11-25T15:14:58.542Z,27.20
2022-11-25T15:17:33.240Z,31.33
2022-11-25T15:20:04.368Z,29.37
2022-11-25T15:22:31.285Z,37.60
2022-11-25T15:25:09.844Z,119.23
2022-11-25T15:27:51.484Z,34.23
2022-11-25T15:30:26.323Z,34.70
2022-11-25T15:32:55.296Z,32.47
2022-11-25T15:35:27.473Z,37.13
2022-11-25T15:37:54.461Z,34.57
2022-11-25T15:40:36.962Z,40.63
2022-11-25T15:43:07.834Z,33.90
2022-11-25T15:45:45.975Z,30.60
2022-11-25T15:48:40.178Z,31.90
2022-11-25T15:51:18.985Z,32.87
2022-11-25T15:53:47.023Z,32.40
2022-11-25T15:56:21.631Z,32.17
2022-11-25T15:58:48.437Z,31.90
2022-11-25T16:01:18.240Z,31.03
2022-11-25T16:03:46.617Z,33.23
2022-11-25T16:06:22.002Z,34.47
2022-11-25T16:09:02.976Z,46.63
2022-11-25T16:11:33.635Z,39.20
2022-11-25T16:14:25.952Z,32.50
2022-11-25T16:17:00.940Z,55.53
2022-11-25T16:19:37.965Z,41.63
2022-11-25T16:22:05.897Z,45.60
2022-11-25T16:24:35.297Z,38.70
2022-11-25T16:27:21.099Z,41.43
2022-11-25T16:29:51.491Z,40.30
2022-11-25T16:32:24.596Z,35.53
2022-11-25T16:34:51.902Z,106.20
2022-11-25T16:37:18.789Z,51.83
2022-11-25T16:39:45.596Z,48.03
2022-11-25T16:42:21.465Z,39.70
2022-11-25T16:44:50.918Z,55.10
2022-11-25T16:47:19.471Z,56.13
2022-11-25T16:49:46.726Z,74.73
2022-11-25T16:52:14.631Z,60.50
2022-11-25T16:54:41.931Z,60.47
2022-11-25T16:57:16.857Z,61.80
2022-11-25T16:59:45.585Z,71.63
2022-11-25T17:02:20.824Z,48.80
2022-11-25T17:04:48.585Z,51.43
2022-11-25T17:07:32.231Z,47.67
2022-11-25T17:09:59.923Z,45.83
2022-11-25T17:12:31.447Z,44.47
2022-11-25T17:15:00.201Z,129.60
2022-11-25T17:17:27.788Z,59.17
2022-11-25T17:19:54.698Z,52.10
2022-11-25T17:22:24.203Z,42.33
2022-11-25T17:24:51.366Z,48.23
2022-11-25T17:27:25.373Z,43.57
2022-11-25T17:29:53.455Z,39.87
2022-11-25T17:32:21.052Z,44.93
2022-11-25T17:34:48.079Z,45.57
2022-11-25T17:37:17.429Z,50.87
2022-11-25T17:39:44.430Z,51.43
2022-11-25T17:42:19.283Z,46.20
2022-11-25T17:44:51.293Z,38.30
2022-11-25T17:47:20.413Z,58.30
2022-11-25T17:49:48.289Z,45.80
2022-11-25T17:52:15.523Z,44.50
2022-11-25T17:54:42.383Z,56.10
2022-11-25T17:57:15.873Z,53.37
2022-11-25T17:59:42.855Z,48.23
2022-11-25T18:02:20.901Z,40.40
2022-11-25T18:04:48.646Z,41.90
2022-11-25T18:07:15.582Z,55.20
2022-11-25T18:09:42.492Z,61.30
2022-11-25T18:12:30.872Z,47.37
2022-11-25T18:14:57.938Z,45.80
2022-11-25T18:17:25.055Z,42.40
2022-11-25T18:19:55.236Z,45.50
2022-11-25T18:22:24.164Z,32.57
2022-11-25T18:24:52.386Z,39.10
2022-11-25T18:27:27.077Z,35.30
2022-11-25T18:29:55.828Z,31.97
2022-11-25T18:32:23.822Z,36.30
2022-11-25T18:34:51.571Z,30.60
2022-11-25T18:37:18.504Z,28.63
2022-11-25T18:39:45.355Z,32.93
2022-11-25T18:42:25.566Z,30.50
2022-11-25T18:44:54.316Z,34.67
2022-11-25T18:47:21.630Z,22.77
2022-11-25T18:49:53.828Z,28.20
2022-11-25T18:52:22.171Z,26.03
2022-11-25T18:54:49.515Z,37.27
2022-11-25T18:57:16.478Z,32.90
2022-11-25T18:59:44.441Z,37.30
2022-11-25T19:02:17.739Z,30.43
2022-11-25T19:04:44.959Z,32.37
2022-11-25T19:07:11.934Z,28.17
2022-11-25T19:09:38.878Z,25.43
2022-11-25T19:12:06.509Z,22.23
2022-11-25T19:14:37.588Z,26.77
2022-11-25T19:17:09.369Z,27.30
2022-11-25T19:19:37.950Z,26.70
2022-11-25T19:22:11.860Z,31.70
2022-11-25T19:24:38.884Z,29.63
2022-11-25T19:27:05.948Z,22.30
2022-11-25T19:29:41.747Z,27.07
2022-11-25T19:32:28.109Z,23.80
2022-11-25T19:35:02.924Z,30.20
2022-11-25T19:37:32.496Z,36.50
2022-11-25T19:39:59.434Z,34.80
2022-11-25T19:42:28.410Z,31.50
2022-11-25T19:44:55.283Z,27.67
2022-11-25T19:47:24.520Z,33.10
2022-11-25T19:49:54.677Z,35.23
2022-11-25T19:52:33.189Z,42.47
2022-11-25T19:55:00.055Z,59.17
2022-11-25T19:57:27.618Z,53.00
2022-11-25T19:59:54.537Z,45.77
2022-11-25T20:02:24.387Z,48.93
2022-11-25T20:04:54.514Z,42.57
2022-11-25T20:07:22.123Z,50.90
2022-11-25T20:09:51.192Z,41.87
2022-11-25T20:12:22.814Z,41.23
2022-11-25T20:14:51.735Z,40.20
2022-11-25T20:17:47.973Z,40.23
2022-11-25T20:20:28.453Z,34.80
2022-11-25T20:23:08.642Z,37.00
2022-11-25T20:25:41.599Z,33.67
2022-11-25T20:28:20.042Z,39.90
2022-11-25T20:30:48.093Z,37.07
2022-11-25T20:33:19.819Z,38.17
2022-11-25T20:35:51.442Z,40.60
2022-11-25T20:38:22.139Z,31.93
2022-11-25T20:40:51.931Z,43.50
2022-11-25T20:43:27.211Z,29.30
2022-11-25T20:45:54.420Z,35.57
2022-11-25T20:48:21.487Z,32.80
2022-11-25T20:50:48.935Z,32.90
2022-11-25T20:53:18.395Z,32.10
2022-11-25T20:55:46.222Z,38.10
2022-11-25T20:58:30.525Z,35.10
2022-11-25T21:00:58.671Z,36.67
2022-11-25T21:03:26.107Z,33.33
2022-11-25T21:05:54.934Z,40.97
2022-11-25T21:08:24.122Z,32.73
2022-11-25T21:10:53.286Z,34.13
2022-11-25T21:13:29.471Z,41.07
2022-11-25T21:15:57.600Z,39.27
2022-11-25T21:18:24.805Z,38.57
2022-11-25T21:20:55.618Z,34.80
2022-11-25T21:23:28.622Z,36.57
2022-11-25T21:26:02.621Z,36.93
2022-11-25T21:28:29.468Z,33.77
2022-11-25T21:30:56.319Z,34.43
2022-11-25T21:33:23.185Z,35.93
2022-11-25T21:35:53.041Z,35.23
2022-11-25T21:38:26.192Z,33.97
2022-11-25T21:40:58.103Z,31.23
2022-11-25T21:43:31.935Z,30.63
2022-11-25T21:46:02.437Z,34.73
2022-11-25T21:48:29.943Z,35.80
2022-11-25T21:50:57.172Z,43.63
2022-11-25T21:53:24.341Z,50.40
2022-11-25T21:55:51.746Z,48.10
2022-11-25T21:58:21.469Z,42.30
2022-11-25T22:00:56.657Z,64.30
2022-11-25T22:03:24.944Z,50.87
2022-11-25T22:05:51.873Z,51.87
2022-11-25T22:08:18.696Z,46.17
2022-11-25T22:10:49.178Z,63.70
2022-11-25T22:13:19.524Z,44.70
2022-11-25T22:15:47.016Z,54.40
2022-11-25T22:18:31.294Z,48.83
2022-11-25T22:20:58.359Z,34.60
2022-11-25T22:23:25.562Z,42.60
2022-11-25T22:25:52.773Z,41.63
2022-11-25T22:28:28.720Z,54.97
2022-11-25T22:31:00.735Z,48.27
2022-11-25T22:33:33.100Z,56.10
2022-11-25T22:36:00.443Z,60.47
2022-11-25T22:38:28.484Z,49.40
2022-11-25T22:41:01.606Z,47.33
2022-11-25T22:43:43.414Z,51.70
2022-11-25T22:46:10.993Z,34.37
2022-11-25T22:48:38.902Z,46.77
2022-11-25T22:51:06.332Z,55.50
2022-11-25T22:53:33.236Z,50.67
2022-11-25T22:56:00.180Z,45.73
2022-11-25T22:58:28.262Z,37.93
2022-11-25T23:00:56.593Z,40.47
2022-11-25T23:03:33.551Z,39.27
2022-11-25T23:06:02.102Z,43.83
2022-11-25T23:08:31.777Z,40.67
2022-11-25T23:10:59.056Z,37.73
2022-11-25T23:13:26.207Z,39.83
2022-11-25T23:15:55.550Z,37.67
2022-11-25T23:18:40.727Z,40.20
2022-11-25T23:21:25.266Z,35.80
2022-11-25T23:23:52.583Z,35.20
2022-11-25T23:26:19.690Z,31.80
2022-11-25T23:28:46.553Z,29.87
2022-11-25T23:31:15.336Z,34.33
2022-11-25T23:33:46.075Z,36.67
2022-11-25T23:36:18.736Z,38.83
2022-11-25T23:38:51.275Z,46.73
2022-11-25T23:41:25.158Z,43.17
2022-11-25T23:43:52.960Z,39.93
2022-11-25T23:46:23.754Z,48.03
2022-11-25T23:48:57.406Z,40.10
2022-11-25T23:51:26.442Z,42.80
2022-11-25T23:53:54.503Z,43.73
2022-11-25T23:56:21.841Z,40.40
2022-11-25T23:58:50.030Z,53.53
